Time;durP1;ratioP1;P1;durP2;ratioP2;P2;SDS_P1;SDS_P2;PMS_P1;PMS_P2;Temp;Humidity;BMP_temperature;BMP_pressure;BME280_temperature;BME280_humidity;BME280_pressure;Samples;Min_cycle;Max_cycle;Signal;HPM_P1;HPM_P2
2022/11/13 00:01:14;;;;;;;13.25;11.85;;;;;;;3.76;100.00;102994.25;4917297;29;20672;-49
2022/11/13 00:03:58;;;;;;;13.30;11.27;;;;;;;3.77;100.00;103004.91;4919179;29;20283;-50
2022/11/13 00:06:42;;;;;;;12.45;11.00;;;;;;;3.81;100.00;102996.19;4917585;29;20291;-49
2022/11/13 00:09:26;;;;;;;13.02;11.63;;;;;;;3.75;100.00;103003.09;4917506;29;20257;-51
2022/11/13 00:12:10;;;;;;;13.18;10.77;;;;;;;3.80;100.00;102996.13;4917895;29;20198;-49
2022/11/13 00:14:54;;;;;;;13.43;12.07;;;;;;;3.79;100.00;103000.53;4919847;29;20238;-50
2022/11/13 00:17:38;;;;;;;12.15;10.95;;;;;;;3.75;100.00;103011.94;4913155;29;20243;-49
2022/11/13 00:20:22;;;;;;;12.18;10.98;;;;;;;3.74;100.00;103015.47;4918167;29;20213;-50
2022/11/13 00:23:06;;;;;;;15.23;11.65;;;;;;;3.58;100.00;103005.31;4913510;29;20206;-48
2022/11/13 00:25:50;;;;;;;18.55;12.80;;;;;;;3.45;100.00;103006.72;4919742;29;20218;-50
2022/11/13 00:28:35;;;;;;;14.02;12.05;;;;;;;3.43;100.00;102996.13;4917494;29;20186;-48
2022/11/13 00:31:19;;;;;;;14.82;13.23;;;;;;;3.39;100.00;102998.63;4920521;29;20194;-47
2022/11/13 00:34:03;;;;;;;13.00;11.60;;;;;;;3.49;100.00;103000.66;4917900;29;20195;-46
2022/11/13 00:36:47;;;;;;;14.88;12.90;;;;;;;3.40;100.00;102996.00;4915243;29;20231;-46
2022/11/13 00:39:31;;;;;;;15.80;12.65;;;;;;;3.46;100.00;102995.28;4920299;29;20376;-47
2022/11/13 00:42:15;;;;;;;14.98;13.38;;;;;;;3.48;100.00;102998.88;4915589;29;20203;-47
2022/11/13 00:44:59;;;;;;;13.70;11.75;;;;;;;3.54;100.00;102998.13;4919849;29;20195;-46
2022/11/13 00:47:43;;;;;;;14.73;13.23;;;;;;;3.54;100.00;102975.16;4915340;29;20273;-44
2022/11/13 00:50:27;;;;;;;17.33;13.85;;;;;;;3.39;100.00;102981.00;4919313;29;20211;-46
2022/11/13 00:53:11;;;;;;;16.63;12.57;;;;;;;3.42;100.00;102980.16;4919588;29;20195;-45
2022/11/13 00:55:56;;;;;;;16.27;12.50;;;;;;;3.45;100.00;102969.63;4913305;29;20223;-47
2022/11/13 00:58:40;;;;;;;16.02;12.68;;;;;;;3.46;100.00;102976.75;4918375;29;20211;-47
2022/11/13 01:01:23;;;;;;;12.82;11.43;;;;;;;3.49;100.00;102964.44;4921028;29;20734;-47
2022/11/13 01:04:07;;;;;;;19.50;13.63;;;;;;;3.37;100.00;102961.50;4917565;29;20271;-46
2022/11/13 01:06:51;;;;;;;16.25;13.68;;;;;;;3.39;100.00;102964.16;4915240;29;20210;-47
2022/11/13 01:09:36;;;;;;;17.70;13.95;;;;;;;3.34;100.00;102974.66;4920517;29;20640;-46
2022/11/13 01:12:20;;;;;;;18.42;15.50;;;;;;;3.56;100.00;102964.59;4913988;29;20207;-46
2022/11/13 01:15:03;;;;;;;22.08;16.15;;;;;;;3.62;100.00;102970.06;4921128;29;20213;-46
2022/11/13 01:17:48;;;;;;;22.92;17.95;;;;;;;3.69;100.00;102969.34;4923351;29;20301;-45
2022/11/13 01:20:32;;;;;;;19.95;16.45;;;;;;;3.79;100.00;102963.44;4915035;29;20714;-49
2022/11/13 01:23:16;;;;;;;23.67;18.63;;;;;;;3.91;100.00;102968.13;4916523;29;20266;-47
2022/11/13 01:26:21;;;;;;;23.10;17.95;;;;;;;4.02;100.00;102966.59;4915558;29;20266;-48
2022/11/13 01:29:06;;;;;;;20.05;17.52;;;;;;;4.03;100.00;102970.19;4920211;29;20265;-46
2022/11/13 01:31:50;;;;;;;22.55;18.23;;;;;;;4.09;100.00;102965.91;4921196;29;20234;-45
2022/11/13 01:34:34;;;;;;;22.92;17.83;;;;;;;4.19;100.00;102968.78;4918302;29;20199;-45
2022/11/13 01:37:18;;;;;;;24.80;18.92;;;;;;;4.17;100.00;102965.19;4914969;29;20719;-45
2022/11/13 01:40:02;;;;;;;26.92;19.23;;;;;;;4.20;100.00;102975.84;4916723;29;20246;-45
2022/11/13 01:42:46;;;;;;;23.60;20.42;;;;;;;4.19;100.00;102967.00;4918097;29;20176;-46
2022/11/13 01:45:49;;;;;;;25.70;19.38;;;;;;;4.33;100.00;102962.03;4919270;29;20325;-44
2022/11/13 01:48:47;;;;;;;27.17;21.55;;;;;;;4.32;100.00;102970.84;4912540;29;20242;-46
2022/11/13 01:51:39;;;;;;;28.50;20.42;;;;;;;4.28;100.00;102966.31;4922142;29;20211;-44
2022/11/13 01:54:33;;;;;;;29.75;22.17;;;;;;;4.28;100.00;102956.59;4919800;29;20203;-45
2022/11/13 01:57:18;;;;;;;28.50;21.42;;;;;;;4.32;100.00;102977.03;4917773;29;20777;-44
2022/11/13 02:00:07;;;;;;;24.42;21.13;;;;;;;4.34;100.00;102958.50;4921527;29;20213;-44
2022/11/13 02:02:51;;;;;;;28.73;21.40;;;;;;;4.36;100.00;102954.13;4918644;29;20207;-45
2022/11/13 02:05:35;;;;;;;25.83;20.92;;;;;;;4.34;100.00;102954.06;4917338;29;20258;-44
2022/11/13 02:08:19;;;;;;;26.38;21.90;;;;;;;4.34;100.00;102959.38;4918713;29;20184;-45
2022/11/13 02:11:03;;;;;;;25.13;19.05;;;;;;;4.34;100.00;102958.50;4918748;29;20400;-46
2022/11/13 02:13:48;;;;;;;24.35;20.35;;;;;;;4.36;100.00;102943.50;4918868;29;20199;-43
2022/11/13 02:16:34;;;;;;;26.80;21.02;;;;;;;4.35;100.00;102944.34;4914145;29;20285;-44
2022/11/13 02:19:42;;;;;;;23.35;18.42;;;;;;;4.38;100.00;102944.44;4917320;29;20597;-47
2022/11/13 02:22:32;;;;;;;22.75;19.60;;;;;;;4.37;100.00;102950.59;4927311;29;20258;-45
2022/11/13 02:25:18;;;;;;;24.40;19.40;;;;;;;4.36;100.00;102951.47;4917302;29;20214;-45
2022/11/13 02:28:02;;;;;;;21.55;18.10;;;;;;;4.34;100.00;102951.41;4923444;29;20254;-48
2022/11/13 02:30:46;;;;;;;26.30;19.73;;;;;;;4.20;100.00;102952.88;4915905;29;20195;-45
2022/11/13 02:33:31;;;;;;;22.73;18.00;;;;;;;4.27;100.00;102944.19;4919489;29;20710;-46
2022/11/13 02:36:19;;;;;;;22.33;17.02;;;;;;;4.27;100.00;102938.88;4919578;29;20226;-45
2022/11/13 02:39:07;;;;;;;22.65;17.70;;;;;;;4.27;100.00;102938.00;4918440;29;20199;-46
2022/11/13 02:41:52;;;;;;;22.30;17.67;;;;;;;4.24;100.00;102936.19;4919619;29;20187;-46
2022/11/13 02:44:36;;;;;;;20.90;16.85;;;;;;;4.27;100.00;102932.69;4929620;29;20235;-46
2022/11/13 02:47:20;;;;;;;19.88;16.45;;;;;;;4.35;100.00;102928.44;4919167;29;20563;-48
2022/11/13 02:50:05;;;;;;;19.08;16.08;;;;;;;4.30;100.00;102925.69;4923091;29;20206;-47
2022/11/13 02:52:49;;;;;;;21.75;17.92;;;;;;;4.17;100.00;102928.94;4917367;29;20593;-46
2022/11/13 02:55:33;;;;;;;27.40;19.02;;;;;;;4.07;100.00;102922.53;4914347;29;20277;-47
2022/11/13 02:58:17;;;;;;;24.75;17.77;;;;;;;4.04;100.00;102925.09;4926168;28;20227;-45
2022/11/13 03:01:03;;;;;;;22.92;18.35;;;;;;;3.88;100.00;102918.56;4923174;29;20391;-45
2022/11/13 03:03:47;;;;;;;23.27;18.80;;;;;;;3.88;100.00;102901.75;4921729;28;20195;-45
2022/11/13 03:06:31;;;;;;;25.25;18.88;;;;;;;3.83;100.00;102906.06;4913531;29;20219;-52
2022/11/13 03:09:15;;;;;;;22.60;18.42;;;;;;;3.84;100.00;102900.78;4916607;29;20299;-52
2022/11/13 03:11:59;;;;;;;21.52;17.90;;;;;;;3.98;100.00;102909.06;4918613;29;20210;-47
2022/11/13 03:14:43;;;;;;;22.35;17.10;;;;;;;4.06;100.00;102903.94;4917207;29;20282;-48
2022/11/13 03:17:30;;;;;;;23.63;19.45;;;;;;;3.83;100.00;102891.06;4915932;29;20222;-47
2022/11/13 03:20:15;;;;;;;25.38;19.35;;;;;;;3.81;100.00;102903.38;4917109;29;20680;-49
2022/11/13 03:22:59;;;;;;;26.58;20.15;;;;;;;3.78;100.00;102889.16;4921977;29;20606;-50
2022/11/13 03:25:43;;;;;;;22.48;18.58;;;;;;;3.78;100.00;102890.03;4917470;29;20227;-48
2022/11/13 03:28:26;;;;;;;25.02;19.30;;;;;;;3.67;100.00;102891.53;4916900;29;20691;-50
2022/11/13 03:31:10;;;;;;;27.83;20.10;;;;;;;3.69;100.00;102892.47;4915268;29;20192;-49
2022/11/13 03:33:54;;;;;;;26.85;19.17;;;;;;;3.78;100.00;102895.34;4925214;29;20676;-50
2022/11/13 03:36:38;;;;;;;21.73;18.38;;;;;;;3.83;100.00;102896.34;4917698;29;20325;-50
2022/11/13 03:39:22;;;;;;;21.55;17.35;;;;;;;3.79;100.00;102888.31;4920530;29;20621;-47
2022/11/13 03:42:06;;;;;;;22.02;17.50;;;;;;;3.76;100.00;102890.88;4917451;29;20233;-48
2022/11/13 03:44:50;;;;;;;21.48;17.60;;;;;;;3.79;100.00;102893.59;4922177;29;20281;-47
2022/11/13 03:47:34;;;;;;;23.60;18.40;;;;;;;3.83;100.00;102901.66;4934611;28;20226;-45
2022/11/13 03:50:18;;;;;;;21.75;17.30;;;;;;;3.78;100.00;102892.69;4917374;29;20282;-46
2022/11/13 03:53:02;;;;;;;21.92;17.50;;;;;;;3.59;100.00;102896.69;4919975;29;20287;-47
2022/11/13 03:55:46;;;;;;;22.77;18.25;;;;;;;3.57;100.00;102884.25;4915161;29;20265;-49
2022/11/13 03:58:31;;;;;;;22.15;17.92;;;;;;;3.50;100.00;102892.06;4917696;29;20230;-48
2022/11/13 04:01:15;;;;;;;19.58;16.67;;;;;;;3.40;100.00;102882.06;4921898;29;20207;-47
2022/11/13 04:03:59;;;;;;;23.50;18.35;;;;;;;3.30;100.00;102870.38;4916076;29;20203;-47
2022/11/13 04:06:42;;;;;;;21.35;17.75;;;;;;;3.38;100.00;102870.53;4913865;29;20339;-48
2022/11/13 04:09:26;;;;;;;21.33;16.83;;;;;;;3.46;100.00;102871.63;4916138;29;20203;-49
2022/11/13 04:12:10;;;;;;;25.98;18.10;;;;;;;3.45;100.00;102872.47;4917542;29;20246;-47
2022/11/13 04:14:54;;;;;;;22.90;17.20;;;;;;;3.48;100.00;102863.72;4918614;29;20638;-49
2022/11/13 04:17:38;;;;;;;23.15;17.85;;;;;;;3.51;100.00;102869.09;4919003;29;20226;-49
2022/11/13 04:20:23;;;;;;;22.95;17.90;;;;;;;3.42;100.00;102867.13;4915828;29;20290;-49
2022/11/13 04:23:11;;;;;;;25.30;18.92;;;;;;;3.30;100.00;102865.06;4916903;29;20210;-48
2022/11/13 04:25:55;;;;;;;23.35;17.25;;;;;;;3.33;100.00;102861.59;4918221;29;20569;-47
2022/11/13 04:28:39;;;;;;;21.85;18.13;;;;;;;3.21;100.00;102864.81;4912447;29;20203;-46
2022/11/13 04:31:23;;;;;;;26.60;18.90;;;;;;;3.16;100.00;102852.34;4920259;29;20206;-47
2022/11/13 04:34:08;;;;;;;24.77;19.20;;;;;;;3.14;100.00;102854.94;4919885;29;20694;-48
2022/11/13 04:36:51;;;;;;;27.88;20.40;;;;;;;3.24;100.00;102849.03;4915907;29;20230;-49
2022/11/13 04:39:35;;;;;;;29.83;20.77;;;;;;;3.28;100.00;102842.06;4916698;29;20269;-48
2022/11/13 04:45:26;;;;;;;29.17;20.95;;;;;;;3.41;100.00;102846.78;4920203;29;20222;-46
2022/11/13 04:48:10;;;;;;;25.02;19.40;;;;;;;3.34;100.00;102849.25;4916576;29;20214;-45
2022/11/13 04:50:54;;;;;;;27.83;19.35;;;;;;;3.36;100.00;102844.88;4913828;29;20206;-47
2022/11/13 04:53:38;;;;;;;22.10;17.73;;;;;;;3.39;100.00;102845.84;4916821;29;20252;-47
2022/11/13 04:56:22;;;;;;;27.15;18.52;;;;;;;3.41;100.00;102853.81;4912820;29;20342;-48
2022/11/13 04:59:06;;;;;;;23.67;18.52;;;;;;;3.43;100.00;102847.72;4920290;29;20565;-47
2022/11/13 05:01:50;;;;;;;21.83;17.90;;;;;;;3.41;100.00;102845.88;4918518;29;20584;-50
2022/11/13 05:04:33;;;;;;;25.15;18.05;;;;;;;3.45;100.00;102855.69;4913022;29;20254;-52
2022/11/13 05:07:18;;;;;;;27.17;19.13;;;;;;;3.44;100.00;102840.66;4918774;29;20250;-50
2022/11/13 05:10:03;;;;;;;34.10;22.75;;;;;;;3.68;100.00;102850.94;4918037;29;20206;-49
2022/11/13 05:12:47;;;;;;;30.42;22.65;;;;;;;3.70;100.00;102844.81;4917162;29;20329;-49
2022/11/13 05:15:31;;;;;;;32.80;23.58;;;;;;;3.76;100.00;102845.78;4913340;29;20222;-46
2022/11/13 05:18:15;;;;;;;38.78;26.35;;;;;;;4.01;100.00;102844.59;4917180;29;20230;-46
2022/11/13 05:21:00;;;;;;;39.35;26.02;;;;;;;4.14;100.00;102841.31;4914897;29;20632;-46
2022/11/13 05:23:43;;;;;;;42.50;27.40;;;;;;;4.45;100.00;102834.88;4918600;29;20234;-47
2022/11/13 05:26:27;;;;;;;40.25;27.60;;;;;;;4.45;100.00;102834.88;4917279;29;20645;-49
2022/11/13 05:29:11;;;;;;;43.15;28.67;;;;;;;4.63;100.00;102828.13;4917783;29;20668;-46
2022/11/13 05:31:55;;;;;;;51.75;32.70;;;;;;;4.81;100.00;102828.47;4919749;29;20326;-47
2022/11/13 05:34:39;;;;;;;51.58;31.73;;;;;;;4.92;100.00;102821.59;4918125;29;20294;-46
2022/11/13 05:37:23;;;;;;;54.05;32.67;;;;;;;4.89;100.00;102828.59;4918411;29;20215;-48
2022/11/13 05:40:08;;;;;;;55.72;33.33;;;;;;;5.03;100.00;102824.44;4923264;29;20205;-49
2022/11/13 05:42:53;;;;;;;57.53;34.20;;;;;;;4.96;100.00;102811.88;4917845;29;20209;-45
2022/11/13 05:45:37;;;;;;;56.20;33.03;;;;;;;5.15;100.00;102827.25;4924808;29;20706;-50
2022/11/13 05:48:21;;;;;;;56.50;34.58;;;;;;;5.14;100.00;102816.63;4917772;29;20211;-46
2022/11/13 05:51:09;;;;;;;53.33;33.92;;;;;;;5.20;100.00;102821.13;4927272;29;20244;-47
2022/11/13 05:53:54;;;;;;;52.95;33.20;;;;;;;5.19;100.00;102816.72;4924219;29;20192;-51
2022/11/13 05:56:39;;;;;;;53.40;33.83;;;;;;;5.30;100.00;102829.28;4920704;29;20235;-47
2022/11/13 05:59:23;;;;;;;58.10;34.55;;;;;;;5.36;100.00;102818.75;4918285;29;20703;-46
2022/11/13 06:02:07;;;;;;;58.47;36.03;;;;;;;5.40;100.00;102816.13;4923343;29;20210;-45
2022/11/13 06:04:51;;;;;;;54.13;34.00;;;;;;;5.38;100.00;102818.78;4919401;29;20667;-45
2022/11/13 06:07:35;;;;;;;56.40;36.05;;;;;;;5.39;100.00;102811.69;4925214;29;20222;-44
2022/11/13 06:10:19;;;;;;;55.08;34.45;;;;;;;5.41;100.00;102816.16;4918224;29;20209;-44
2022/11/13 06:13:03;;;;;;;58.63;34.95;;;;;;;5.43;100.00;102810.88;4917456;29;20250;-44
2022/11/13 06:15:47;;;;;;;58.88;34.00;;;;;;;5.44;100.00;102802.91;4918673;29;20226;-45
2022/11/13 06:18:31;;;;;;;54.38;34.55;;;;;;;5.42;100.00;102803.75;4916242;29;20223;-45
2022/11/13 06:21:21;;;;;;;55.97;34.58;;;;;;;5.42;100.00;102791.34;4920100;29;20290;-44
2022/11/13 06:24:06;;;;;;;52.22;32.70;;;;;;;5.41;100.00;102799.31;4927181;29;20241;-43
2022/11/13 06:26:50;;;;;;;54.80;33.08;;;;;;;5.45;100.00;102791.41;4919069;29;20219;-42
2022/11/13 06:29:35;;;;;;;53.67;33.38;;;;;;;5.45;100.00;102799.38;4918987;29;20263;-44
2022/11/13 06:32:18;;;;;;;59.50;34.40;;;;;;;5.47;100.00;102794.09;4921374;29;20226;-43
2022/11/13 06:35:03;;;;;;;50.00;31.95;;;;;;;5.50;100.00;102789.69;4919260;29;20207;-43
2022/11/13 06:37:47;;;;;;;52.83;31.70;;;;;;;5.52;100.00;102792.38;4920350;29;20222;-43
2022/11/13 06:40:31;;;;;;;53.40;32.38;;;;;;;5.56;100.00;102791.56;4918726;29;20207;-42
2022/11/13 06:43:15;;;;;;;56.35;33.22;;;;;;;5.57;100.00;102796.91;4917497;29;20313;-44
2022/11/13 06:46:08;;;;;;;53.80;33.58;;;;;;;5.56;100.00;102799.53;4919903;29;20277;-46
2022/11/13 06:48:53;;;;;;;51.50;31.17;;;;;;;5.58;100.00;102803.13;4917348;29;20199;-43
2022/11/13 06:51:38;;;;;;;49.72;32.15;;;;;;;5.55;100.00;102797.75;4916561;29;20254;-42
2022/11/13 06:54:22;;;;;;;50.35;30.73;;;;;;;5.56;100.00;102794.22;4918473;29;20206;-44
2022/11/13 06:57:06;;;;;;;48.25;31.35;;;;;;;5.54;100.00;102804.84;4919821;29;20239;-47
2022/11/13 06:59:50;;;;;;;54.83;33.42;;;;;;;5.55;100.00;102797.75;4918121;29;20211;-46
2022/11/13 07:02:34;;;;;;;46.97;31.13;;;;;;;5.61;100.00;102808.47;4912785;29;20250;-42
2022/11/13 07:05:18;;;;;;;48.13;29.65;;;;;;;5.62;100.00;102809.34;4919170;29;20282;-45
2022/11/13 07:08:02;;;;;;;47.13;30.67;;;;;;;5.59;100.00;102799.56;4918847;29;20261;-44
2022/11/13 07:10:54;;;;;;;47.60;29.85;;;;;;;5.61;100.00;102805.81;4914422;29;20887;-43
2022/11/13 07:13:38;;;;;;;43.70;29.05;;;;;;;5.63;100.00;102803.19;4922980;29;20206;-44
2022/11/13 07:16:23;;;;;;;49.95;29.60;;;;;;;5.65;100.00;102812.97;4915256;29;20250;-44
2022/11/13 07:19:07;;;;;;;45.75;28.23;;;;;;;5.67;100.00;102811.22;4917603;29;20199;-47
2022/11/13 07:21:50;;;;;;;43.40;28.63;;;;;;;5.70;100.00;102811.25;4922519;29;20273;-43
2022/11/13 07:24:34;;;;;;;42.25;28.45;;;;;;;5.65;100.00;102825.38;4919911;29;20194;-43
2022/11/13 07:27:18;;;;;;;45.63;27.92;;;;;;;5.66;100.00;102811.19;4918062;29;20250;-43
2022/11/13 07:30:03;;;;;;;44.25;28.00;;;;;;;5.65;100.00;102825.38;4925555;29;20198;-42
2022/11/13 07:32:47;;;;;;;47.90;28.35;;;;;;;5.64;100.00;102813.84;4925799;29;20854;-43
2022/11/13 07:35:31;;;;;;;42.72;27.42;;;;;;;5.62;100.00;102817.34;4916693;29;20278;-43
2022/11/13 07:38:15;;;;;;;40.10;27.27;;;;;;;5.68;100.00;102820.09;4917790;29;20813;-42
2022/11/13 07:40:59;;;;;;;44.80;28.27;;;;;;;5.75;100.00;102825.53;4919880;29;20218;-41
2022/11/13 07:43:43;;;;;;;46.95;27.83;;;;;;;5.74;100.00;102823.72;4918830;29;20278;-44
2022/11/13 07:46:27;;;;;;;43.67;27.67;;;;;;;5.76;100.00;102819.31;4918060;29;20243;-46
2022/11/13 07:49:11;;;;;;;43.05;27.80;;;;;;;5.76;100.00;102821.09;4920427;29;20322;-44
2022/11/13 07:51:55;;;;;;;43.75;28.27;;;;;;;5.82;100.00;102820.28;4918058;29;20215;-43
2022/11/13 07:54:39;;;;;;;43.78;27.95;;;;;;;5.77;100.00;102817.53;4918559;29;20791;-42
2022/11/13 07:57:23;;;;;;;42.20;28.60;;;;;;;5.82;100.00;102817.63;4914291;29;20235;-47
2022/11/13 08:00:08;;;;;;;40.22;28.33;;;;;;;5.83;100.00;102819.41;4913414;29;20261;-42
2022/11/13 08:02:52;;;;;;;41.22;28.02;;;;;;;5.83;100.00;102827.38;4919167;29;20554;-43
2022/11/13 08:05:38;;;;;;;43.50;28.15;;;;;;;5.85;100.00;102833.63;4920224;29;20309;-45
2022/11/13 08:08:22;;;;;;;40.92;27.75;;;;;;;5.89;100.00;102843.44;4916036;29;20214;-43
2022/11/13 08:11:08;;;;;;;38.58;27.00;;;;;;;6.04;100.00;102845.44;4918002;29;20291;-44
2022/11/13 08:14:00;;;;;;;47.03;28.13;;;;;;;5.99;100.00;102856.00;4919428;29;20678;-42
2022/11/13 08:16:45;;;;;;;42.92;27.05;;;;;;;6.05;100.00;102847.22;4918380;29;20599;-42
2022/11/13 08:19:29;;;;;;;47.88;27.17;;;;;;;6.08;100.00;102845.50;4920265;29;20194;-41
2022/11/13 08:22:13;;;;;;;44.53;27.58;;;;;;;6.05;100.00;102848.09;4915971;29;20239;-42
2022/11/13 08:24:57;;;;;;;45.78;26.48;;;;;;;6.04;100.00;102843.69;4917319;29;20369;-41
2022/11/13 08:27:41;;;;;;;38.90;25.63;;;;;;;6.08;100.00;102852.56;4915646;29;20207;-42
2022/11/13 08:30:27;;;;;;;37.78;26.08;;;;;;;6.17;100.00;102858.03;4915826;29;20206;-42
2022/11/13 08:33:11;;;;;;;42.03;27.27;;;;;;;6.35;100.00;102836.06;4915778;29;20314;-40
2022/11/13 08:35:58;;;;;;;41.75;26.85;;;;;;;6.47;100.00;102846.88;4916175;29;20231;-41
2022/11/13 08:38:42;;;;;;;40.78;26.90;;;;;;;6.71;100.00;102840.91;4916929;29;20218;-42
2022/11/13 08:41:26;;;;;;;38.47;26.35;;;;;;;6.90;100.00;102833.09;4913029;29;20254;-41
2022/11/13 08:44:11;;;;;;;41.65;27.40;;;;;;;6.93;100.00;102834.00;4914416;29;20215;-40
2022/11/13 08:46:55;;;;;;;35.83;25.80;;;;;;;6.97;100.00;102832.25;4913938;29;20242;-43
2022/11/13 08:49:39;;;;;;;37.17;26.80;;;;;;;7.04;100.00;102836.78;4914529;29;20207;-42
2022/11/13 08:52:23;;;;;;;34.72;25.63;;;;;;;7.34;100.00;102821.88;4920523;29;20648;-42
2022/11/13 08:55:07;;;;;;;37.10;26.30;;;;;;;7.18;100.00;102831.56;4918936;29;20267;-42
2022/11/13 08:57:52;;;;;;;37.72;25.70;;;;;;;7.21;100.00;102826.22;4913135;29;20223;-42
2022/11/13 09:00:36;;;;;;;38.63;25.60;;;;;;;7.27;100.00;102836.94;4914305;29;20254;-43
2022/11/13 09:03:20;;;;;;;34.90;25.10;;;;;;;7.35;100.00;102845.03;4914205;29;20206;-42
2022/11/13 09:06:08;;;;;;;31.30;24.98;;;;;;;7.30;100.00;102831.63;4916139;29;20282;-44
2022/11/13 09:08:52;;;;;;;33.33;24.90;;;;;;;7.22;100.00;102828.91;4916707;29;20198;-42
2022/11/13 09:11:36;;;;;;;31.30;25.02;;;;;;;7.19;100.00;102830.66;4919898;29;20268;-41
2022/11/13 09:14:20;;;;;;;32.35;23.45;;;;;;;7.09;100.00;102819.03;4921895;29;20229;-43
2022/11/13 09:17:04;;;;;;;36.45;25.73;;;;;;;7.11;100.00;102819.94;4917141;29;20703;-43
2022/11/13 09:19:48;;;;;;;36.80;26.25;;;;;;;7.12;100.00;102824.38;4917329;29;20249;-43
2022/11/13 09:22:33;;;;;;;32.50;26.50;;;;;;;7.08;100.00;102819.03;4916097;29;20654;-43
2022/11/13 09:25:18;;;;;;;38.65;26.42;;;;;;;6.96;100.00;102817.16;4911129;29;20282;-42
2022/11/13 09:28:03;;;;;;;34.08;26.77;;;;;;;6.94;100.00;102817.13;4914842;29;20194;-42
2022/11/13 09:30:47;;;;;;;30.52;25.83;;;;;;;6.94;100.00;102810.91;4913051;29;20716;-45
2022/11/13 09:33:32;;;;;;;32.33;27.60;;;;;;;6.90;100.00;102811.75;4918608;29;20274;-43
2022/11/13 09:36:16;;;;;;;34.20;26.92;;;;;;;6.92;100.00;102810.91;4915980;29;20236;-42
2022/11/13 09:39:00;;;;;;;34.35;27.02;;;;;;;6.90;100.00;102809.09;4917367;29;20273;-42
2022/11/13 09:42:02;;;;;;;35.63;27.70;;;;;;;6.94;100.00;102802.91;4914741;29;20743;-42
2022/11/13 09:44:52;;;;;;;33.47;28.48;;;;;;;6.96;100.00;102809.16;4920738;29;20270;-41
2022/11/13 09:47:45;;;;;;;39.25;27.88;;;;;;;6.95;100.00;102807.34;4918348;28;20269;-42
2022/11/13 09:50:31;;;;;;;38.25;28.25;;;;;;;7.00;100.00;102808.31;4913961;29;20262;-42
2022/11/13 09:53:15;;;;;;;34.40;28.23;;;;;;;7.00;100.00;102802.97;4921827;29;20573;-41
2022/11/13 09:56:20;;;;;;;35.00;26.73;;;;;;;6.99;100.00;102801.19;4915470;29;20227;-43
2022/11/13 09:59:18;;;;;;;40.75;27.05;;;;;;;6.99;100.00;102799.41;4913270;29;20274;-43
2022/11/13 10:02:24;;;;;;;37.58;27.73;;;;;;;7.04;100.00;102796.81;4917622;29;20246;-44
2022/11/13 10:05:26;;;;;;;37.42;26.92;;;;;;;7.01;100.00;102804.75;4917448;29;20242;-43
2022/11/13 10:08:17;;;;;;;36.55;26.98;;;;;;;7.01;100.00;102818.97;4917674;29;20679;-44
2022/11/13 10:11:08;;;;;;;35.85;27.50;;;;;;;7.00;100.00;102822.53;4912343;29;20196;-41
2022/11/13 10:13:56;;;;;;;33.58;27.15;;;;;;;6.96;100.00;102830.47;4918101;29;20210;-42
2022/11/13 10:16:49;;;;;;;35.42;27.23;;;;;;;7.00;100.00;102824.31;4921695;29;20306;-42
2022/11/13 10:19:41;;;;;;;38.75;26.55;;;;;;;6.89;100.00;102816.22;4919135;29;20322;-42
2022/11/13 10:22:39;;;;;;;32.95;24.52;;;;;;;6.86;100.00;102812.63;4921256;29;20380;-42
2022/11/13 10:25:27;;;;;;;32.33;25.08;;;;;;;6.86;100.00;102815.28;4922086;29;20231;-41
2022/11/13 10:28:24;;;;;;;34.55;25.40;;;;;;;6.95;100.00;102807.34;4921852;29;20203;-43
2022/11/13 10:31:12;;;;;;;31.88;24.52;;;;;;;6.83;100.00;102808.16;4984774;28;20258;-42
2022/11/13 10:33:56;;;;;;;32.17;23.90;;;;;;;6.77;100.00;102805.44;4918125;29;20695;-44
2022/11/13 10:36:50;;;;;;;32.00;23.55;;;;;;;6.71;100.00;102819.59;4920623;29;20282;-42
2022/11/13 10:39:42;;;;;;;33.10;24.42;;;;;;;6.64;100.00;102814.19;4917040;29;20262;-40
2022/11/13 10:42:35;;;;;;;32.45;24.33;;;;;;;6.62;100.00;102802.63;4917455;29;20676;-42
2022/11/13 10:45:21;;;;;;;36.25;24.65;;;;;;;6.56;100.00;102804.34;4919580;29;20246;-42
2022/11/13 10:48:18;;;;;;;36.05;25.33;;;;;;;6.65;100.00;102810.63;4918265;29;20227;-43
2022/11/13 10:51:28;;;;;;;34.58;25.52;;;;;;;6.60;100.00;102802.59;4924339;28;20195;-40
2022/11/13 10:54:23;;;;;;;37.65;25.90;;;;;;;6.64;100.00;102801.75;4916805;29;20262;-43
2022/11/13 10:57:20;;;;;;;33.28;24.50;;;;;;;6.62;100.00;102811.50;4915593;29;20225;-42
2022/11/13 11:00:33;;;;;;;31.75;24.35;;;;;;;6.66;100.00;102804.44;4917086;29;20652;-43
2022/11/13 11:03:22;;;;;;;34.28;23.38;;;;;;;6.65;100.00;102802.63;4915768;29;20242;-42
2022/11/13 11:06:07;;;;;;;33.08;22.38;;;;;;;6.70;100.00;102806.25;4918598;29;20277;-43
2022/11/13 11:08:51;;;;;;;31.65;21.70;;;;;;;6.58;100.00;102794.59;4918692;29;21305;-44
2022/11/13 11:14:44;;;;;;;35.53;22.27;;;;;;;6.64;100.00;102798.19;4919458;29;20183;-43
2022/11/13 11:17:45;;;;;;;34.97;22.98;;;;;;;6.56;100.00;102799.03;4917644;29;20583;-44
2022/11/13 11:20:48;;;;;;;34.50;23.20;;;;;;;6.57;100.00;102795.47;4923173;29;20201;-43
2022/11/13 11:23:47;;;;;;;38.47;23.98;;;;;;;6.62;100.00;102791.97;4919820;29;20602;-42
2022/11/13 11:26:40;;;;;;;44.65;23.95;;;;;;;6.62;100.00;102782.19;4916488;29;20227;-42
2022/11/13 11:29:27;;;;;;;43.00;24.73;;;;;;;6.63;100.00;102778.66;4916232;29;20262;-43
2022/11/13 11:32:30;;;;;;;43.38;25.00;;;;;;;6.59;100.00;102782.19;4914498;29;20606;-42
2022/11/13 11:35:24;;;;;;;47.22;26.58;;;;;;;6.68;100.00;102778.72;4917018;29;20703;-41
2022/11/13 11:38:37;;;;;;;46.35;26.55;;;;;;;6.69;100.00;102754.75;4916247;29;20722;-45
2022/11/13 11:41:28;;;;;;;53.90;27.90;;;;;;;6.68;100.00;102760.94;4918142;29;20210;-42
2022/11/13 11:44:34;;;;;;;47.97;27.45;;;;;;;6.73;100.00;102761.00;4915887;29;20270;-43
2022/11/13 11:47:18;;;;;;;55.63;29.05;;;;;;;6.74;100.00;102758.34;4919894;29;20230;-44
2022/11/13 11:50:09;;;;;;;51.20;27.63;;;;;;;6.78;100.00;102746.84;4918860;29;20219;-42
2022/11/13 11:53:32;;;;;;;51.45;27.45;;;;;;;6.82;100.00;102747.75;4918026;29;20655;-42
2022/11/13 11:56:32;;;;;;;49.30;27.17;;;;;;;6.78;100.00;102764.59;4941462;28;20325;-42
2022/11/13 11:59:32;;;;;;;49.42;27.60;;;;;;;6.80;100.00;102749.53;4918046;29;20711;-44
2022/11/13 12:02:25;;;;;;;50.25;26.92;;;;;;;6.83;100.00;102738.88;4914913;29;20730;-42
2022/11/13 12:05:29;;;;;;;43.78;25.65;;;;;;;6.90;100.00;102747.81;4918199;29;20276;-42
2022/11/13 12:08:34;;;;;;;44.25;25.77;;;;;;;6.88;100.00;102737.13;4921511;29;20241;-43
2022/11/13 12:11:33;;;;;;;41.42;23.10;;;;;;;6.84;100.00;102732.66;4918280;29;20297;-42
2022/11/13 12:14:47;;;;;;;38.05;23.52;;;;;;;6.89;100.00;102714.97;4917556;29;20187;-43
2022/11/13 12:17:46;;;;;;;39.67;25.10;;;;;;;6.93;100.00;102713.19;4924572;28;20284;-41
2022/11/13 12:20:48;;;;;;;37.63;24.35;;;;;;;6.89;100.00;102706.06;4915534;29;20568;-41
2022/11/13 12:23:52;;;;;;;34.50;23.02;;;;;;;6.95;100.00;102700.75;4919582;29;20206;-42
2022/11/13 12:26:52;;;;;;;39.25;25.58;;;;;;;6.98;100.00;102699.03;4920794;29;20241;-42
2022/11/13 12:29:51;;;;;;;41.30;25.38;;;;;;;7.03;100.00;102704.38;4913793;29;20287;-42
2022/11/13 12:32:38;;;;;;;40.80;26.55;;;;;;;7.00;100.00;102694.59;4915270;29;20195;-41
2022/11/13 12:35:24;;;;;;;46.03;28.02;;;;;;;7.04;100.00;102691.94;4917438;29;20230;-41
2022/11/13 12:38:14;;;;;;;42.60;28.63;;;;;;;7.05;100.00;102683.97;4917917;29;20529;-41
2022/11/13 12:41:19;;;;;;;43.08;27.27;;;;;;;7.11;100.00;102684.00;4918809;29;20639;-41
2022/11/13 12:44:17;;;;;;;43.42;27.92;;;;;;;7.08;100.00;102683.09;4921739;28;20702;-41
2022/11/13 12:47:01;;;;;;;39.33;28.65;;;;;;;7.10;100.00;102684.88;4921622;29;20234;-42